sensor_id;sensor_type;location;lat;lon;timestamp;temperature;humidity
53286;DHT22;39171;45.550;12.074;2023-06-10T00:02:14;23.50;78.60
53286;DHT22;39171;45.550;12.074;2023-06-10T00:08:17;23.50;78.60
53286;DHT22;39171;45.550;12.074;2023-06-10T00:14:20;23.50;78.70
53286;DHT22;39171;45.550;12.074;2023-06-10T00:20:22;23.50;78.60
53286;DHT22;39171;45.550;12.074;2023-06-10T00:26:27;23.50;78.70
53286;DHT22;39171;45.550;12.074;2023-06-10T00:32:28;23.50;78.60
53286;DHT22;39171;45.550;12.074;2023-06-10T00:38:30;23.50;78.80
53286;DHT22;39171;45.550;12.074;2023-06-10T00:44:33;23.40;78.70
53286;DHT22;39171;45.550;12.074;2023-06-10T00:50:34;23.50;79.00
53286;DHT22;39171;45.550;12.074;2023-06-10T00:56:36;23.50;78.90
53286;DHT22;39171;45.550;12.074;2023-06-10T01:02:38;23.40;78.90
53286;DHT22;39171;45.550;12.074;2023-06-10T01:15:09;23.50;79.10
53286;DHT22;39171;45.550;12.074;2023-06-10T01:21:20;23.40;79.30
53286;DHT22;39171;45.550;12.074;2023-06-10T01:27:22;23.50;79.40
53286;DHT22;39171;45.550;12.074;2023-06-10T01:33:33;23.50;79.40
53286;DHT22;39171;45.550;12.074;2023-06-10T01:39:34;23.40;79.70
53286;DHT22;39171;45.550;12.074;2023-06-10T01:45:36;23.50;80.20
53286;DHT22;39171;45.550;12.074;2023-06-10T01:51:38;23.40;80.30
53286;DHT22;39171;45.550;12.074;2023-06-10T01:57:39;23.40;80.30
53286;DHT22;39171;45.550;12.074;2023-06-10T02:03:41;23.40;80.40
53286;DHT22;39171;45.550;12.074;2023-06-10T02:09:43;23.30;80.70
53286;DHT22;39171;45.550;12.074;2023-06-10T02:15:45;23.40;80.50
53286;DHT22;39171;45.550;12.074;2023-06-10T02:21:46;23.40;80.70
53286;DHT22;39171;45.550;12.074;2023-06-10T02:27:48;23.40;80.50
53286;DHT22;39171;45.550;12.074;2023-06-10T02:33:49;23.40;80.40
53286;DHT22;39171;45.550;12.074;2023-06-10T02:39:51;23.40;80.30
53286;DHT22;39171;45.550;12.074;2023-06-10T02:45:53;23.40;80.40
53286;DHT22;39171;45.550;12.074;2023-06-10T02:51:55;23.30;80.60
53286;DHT22;39171;45.550;12.074;2023-06-10T02:57:58;23.30;80.60
53286;DHT22;39171;45.550;12.074;2023-06-10T03:04:00;23.30;80.40
53286;DHT22;39171;45.550;12.074;2023-06-10T03:10:02;23.30;80.40
53286;DHT22;39171;45.550;12.074;2023-06-10T03:16:04;23.30;80.30
53286;DHT22;39171;45.550;12.074;2023-06-10T03:22:11;23.30;80.30
53286;DHT22;39171;45.550;12.074;2023-06-10T03:28:17;23.30;80.30
53286;DHT22;39171;45.550;12.074;2023-06-10T03:34:19;23.30;80.30
53286;DHT22;39171;45.550;12.074;2023-06-10T03:40:21;23.30;80.60
53286;DHT22;39171;45.550;12.074;2023-06-10T03:46:23;23.30;80.50
53286;DHT22;39171;45.550;12.074;2023-06-10T03:52:25;23.30;80.50
53286;DHT22;39171;45.550;12.074;2023-06-10T03:58:27;23.30;80.60
53286;DHT22;39171;45.550;12.074;2023-06-10T04:04:29;23.30;80.60
53286;DHT22;39171;45.550;12.074;2023-06-10T04:10:31;23.20;80.50
53286;DHT22;39171;45.550;12.074;2023-06-10T04:16:32;23.30;80.50
53286;DHT22;39171;45.550;12.074;2023-06-10T04:22:35;23.30;80.70
53286;DHT22;39171;45.550;12.074;2023-06-10T04:28:38;23.30;80.60
53286;DHT22;39171;45.550;12.074;2023-06-10T04:34:40;23.20;80.60
53286;DHT22;39171;45.550;12.074;2023-06-10T04:40:42;23.20;80.60
53286;DHT22;39171;45.550;12.074;2023-06-10T04:46:47;23.20;80.60
53286;DHT22;39171;45.550;12.074;2023-06-10T04:52:49;23.30;80.60
53286;DHT22;39171;45.550;12.074;2023-06-10T04:58:51;23.20;80.60
53286;DHT22;39171;45.550;12.074;2023-06-10T05:04:52;23.30;80.50
53286;DHT22;39171;45.550;12.074;2023-06-10T05:10:56;23.20;80.50
53286;DHT22;39171;45.550;12.074;2023-06-10T05:16:58;23.30;80.60
53286;DHT22;39171;45.550;12.074;2023-06-10T05:22:59;23.30;80.70
53286;DHT22;39171;45.550;12.074;2023-06-10T05:29:00;23.30;80.80
53286;DHT22;39171;45.550;12.074;2023-06-10T05:35:02;23.30;80.90
53286;DHT22;39171;45.550;12.074;2023-06-10T05:41:04;23.30;80.80
53286;DHT22;39171;45.550;12.074;2023-06-10T05:47:06;23.30;80.90
53286;DHT22;39171;45.550;12.074;2023-06-10T05:53:08;23.30;81.30
53286;DHT22;39171;45.550;12.074;2023-06-10T05:59:15;23.30;81.30
53286;DHT22;39171;45.550;12.074;2023-06-10T06:05:17;23.30;81.30
53286;DHT22;39171;45.550;12.074;2023-06-10T06:11:18;23.30;81.70
53286;DHT22;39171;45.550;12.074;2023-06-10T06:17:20;23.30;81.50
53286;DHT22;39171;45.550;12.074;2023-06-10T06:23:21;23.30;81.50
53286;DHT22;39171;45.550;12.074;2023-06-10T06:29:23;23.30;81.50
53286;DHT22;39171;45.550;12.074;2023-06-10T06:35:24;23.30;81.30
53286;DHT22;39171;45.550;12.074;2023-06-10T06:41:28;23.30;81.20
53286;DHT22;39171;45.550;12.074;2023-06-10T06:47:30;23.30;81.10
53286;DHT22;39171;45.550;12.074;2023-06-10T06:53:31;23.30;81.20
53286;DHT22;39171;45.550;12.074;2023-06-10T06:59:33;23.30;81.10
53286;DHT22;39171;45.550;12.074;2023-06-10T07:05:34;23.30;81.10
53286;DHT22;39171;45.550;12.074;2023-06-10T07:11:36;23.30;81.00
53286;DHT22;39171;45.550;12.074;2023-06-10T07:17:37;23.30;81.10
53286;DHT22;39171;45.550;12.074;2023-06-10T07:23:41;23.30;81.10
53286;DHT22;39171;45.550;12.074;2023-06-10T07:29:43;23.30;81.50
53286;DHT22;39171;45.550;12.074;2023-06-10T07:35:49;23.30;81.10
53286;DHT22;39171;45.550;12.074;2023-06-10T07:41:51;23.30;81.00
53286;DHT22;39171;45.550;12.074;2023-06-10T07:47:55;23.30;81.00
53286;DHT22;39171;45.550;12.074;2023-06-10T07:53:56;23.30;81.00
53286;DHT22;39171;45.550;12.074;2023-06-10T07:59:58;23.40;81.00
53286;DHT22;39171;45.550;12.074;2023-06-10T08:06:01;23.40;80.90
53286;DHT22;39171;45.550;12.074;2023-06-10T08:12:03;23.40;80.60
53286;DHT22;39171;45.550;12.074;2023-06-10T08:18:06;23.40;80.50
53286;DHT22;39171;45.550;12.074;2023-06-10T08:24:07;23.40;80.50
53286;DHT22;39171;45.550;12.074;2023-06-10T08:30:09;23.40;80.40
53286;DHT22;39171;45.550;12.074;2023-06-10T08:36:14;23.50;80.40
53286;DHT22;39171;45.550;12.074;2023-06-10T08:42:34;23.40;80.20
53286;DHT22;39171;45.550;12.074;2023-06-10T08:48:42;23.50;79.90
53286;DHT22;39171;45.550;12.074;2023-06-10T08:55:15;23.50;79.70
53286;DHT22;39171;45.550;12.074;2023-06-10T09:01:21;23.50;80.00
53286;DHT22;39171;45.550;12.074;2023-06-10T09:07:23;23.50;79.70
53286;DHT22;39171;45.550;12.074;2023-06-10T09:13:26;23.50;79.50
53286;DHT22;39171;45.550;12.074;2023-06-10T09:19:31;23.50;79.40
53286;DHT22;39171;45.550;12.074;2023-06-10T09:25:38;23.60;78.90
53286;DHT22;39171;45.550;12.074;2023-06-10T09:31:44;23.60;78.80
53286;DHT22;39171;45.550;12.074;2023-06-10T09:37:55;23.60;78.70
53286;DHT22;39171;45.550;12.074;2023-06-10T09:43:57;23.60;78.40
53286;DHT22;39171;45.550;12.074;2023-06-10T09:49:58;23.60;78.30
53286;DHT22;39171;45.550;12.074;2023-06-10T09:56:00;23.70;78.10
53286;DHT22;39171;45.550;12.074;2023-06-10T10:02:01;23.70;77.90
53286;DHT22;39171;45.550;12.074;2023-06-10T10:08:08;23.70;77.70
53286;DHT22;39171;45.550;12.074;2023-06-10T10:14:11;23.70;77.60
53286;DHT22;39171;45.550;12.074;2023-06-10T10:20:23;23.70;77.50
53286;DHT22;39171;45.550;12.074;2023-06-10T10:26:26;23.70;77.40
53286;DHT22;39171;45.550;12.074;2023-06-10T10:38:57;23.80;77.10
53286;DHT22;39171;45.550;12.074;2023-06-10T10:44:59;23.80;77.00
53286;DHT22;39171;45.550;12.074;2023-06-10T10:51:02;23.80;76.90
53286;DHT22;39171;45.550;12.074;2023-06-10T10:57:10;23.80;76.90
53286;DHT22;39171;45.550;12.074;2023-06-10T11:03:16;23.80;76.80
53286;DHT22;39171;45.550;12.074;2023-06-10T11:09:27;23.80;76.60
53286;DHT22;39171;45.550;12.074;2023-06-10T11:15:31;23.80;76.60
53286;DHT22;39171;45.550;12.074;2023-06-10T11:28:19;23.80;76.20
53286;DHT22;39171;45.550;12.074;2023-06-10T11:34:24;23.80;76.10
53286;DHT22;39171;45.550;12.074;2023-06-10T11:40:27;23.90;76.00
53286;DHT22;39171;45.550;12.074;2023-06-10T11:46:31;23.90;75.50
53286;DHT22;39171;45.550;12.074;2023-06-10T11:52:33;23.90;75.40
53286;DHT22;39171;45.550;12.074;2023-06-10T11:58:43;24.00;75.30
53286;DHT22;39171;45.550;12.074;2023-06-10T12:04:46;24.00;75.40
53286;DHT22;39171;45.550;12.074;2023-06-10T12:10:52;24.00;75.30
53286;DHT22;39171;45.550;12.074;2023-06-10T12:16:56;24.10;75.20
53286;DHT22;39171;45.550;12.074;2023-06-10T12:22:57;24.10;75.30
53286;DHT22;39171;45.550;12.074;2023-06-10T12:28:59;24.10;75.30
53286;DHT22;39171;45.550;12.074;2023-06-10T12:35:04;24.10;75.30
53286;DHT22;39171;45.550;12.074;2023-06-10T12:41:06;24.10;75.20
53286;DHT22;39171;45.550;12.074;2023-06-10T12:47:08;24.10;75.10
53286;DHT22;39171;45.550;12.074;2023-06-10T12:53:11;24.10;75.50
53286;DHT22;39171;45.550;12.074;2023-06-10T12:59:13;24.10;76.00
53286;DHT22;39171;45.550;12.074;2023-06-10T13:05:16;24.10;75.70
53286;DHT22;39171;45.550;12.074;2023-06-10T13:11:18;24.10;75.80
53286;DHT22;39171;45.550;12.074;2023-06-10T13:17:19;24.20;75.70
53286;DHT22;39171;45.550;12.074;2023-06-10T13:23:24;24.20;75.40
53286;DHT22;39171;45.550;12.074;2023-06-10T13:29:25;24.30;74.90
53286;DHT22;39171;45.550;12.074;2023-06-10T13:35:27;24.30;74.20
53286;DHT22;39171;45.550;12.074;2023-06-10T13:41:28;24.40;73.90
53286;DHT22;39171;45.550;12.074;2023-06-10T13:47:30;24.40;74.00
53286;DHT22;39171;45.550;12.074;2023-06-10T13:53:31;24.40;73.70
53286;DHT22;39171;45.550;12.074;2023-06-10T13:59:35;24.50;73.50
53286;DHT22;39171;45.550;12.074;2023-06-10T14:05:45;24.50;73.30
53286;DHT22;39171;45.550;12.074;2023-06-10T14:11:47;24.60;72.60
53286;DHT22;39171;45.550;12.074;2023-06-10T14:17:48;24.60;71.80
53286;DHT22;39171;45.550;12.074;2023-06-10T14:23:50;24.70;71.50
53286;DHT22;39171;45.550;12.074;2023-06-10T14:29:53;24.70;71.20
53286;DHT22;39171;45.550;12.074;2023-06-10T14:35:54;24.70;70.70
53286;DHT22;39171;45.550;12.074;2023-06-10T14:41:56;24.70;70.30
53286;DHT22;39171;45.550;12.074;2023-06-10T14:47:57;24.70;69.80
53286;DHT22;39171;45.550;12.074;2023-06-10T14:53:58;24.70;69.50
53286;DHT22;39171;45.550;12.074;2023-06-10T15:00:00;24.70;69.40
53286;DHT22;39171;45.550;12.074;2023-06-10T15:06:01;24.70;69.20
53286;DHT22;39171;45.550;12.074;2023-06-10T15:12:03;24.70;69.00
53286;DHT22;39171;45.550;12.074;2023-06-10T15:18:05;24.60;68.80
53286;DHT22;39171;45.550;12.074;2023-06-10T15:24:09;24.60;68.50
53286;DHT22;39171;45.550;12.074;2023-06-10T15:30:11;24.60;68.40
53286;DHT22;39171;45.550;12.074;2023-06-10T15:36:13;24.60;68.30
53286;DHT22;39171;45.550;12.074;2023-06-10T15:42:14;24.60;68.30
53286;DHT22;39171;45.550;12.074;2023-06-10T15:48:16;24.60;68.30
53286;DHT22;39171;45.550;12.074;2023-06-10T15:54:17;24.50;68.20
53286;DHT22;39171;45.550;12.074;2023-06-10T16:00:19;24.50;68.10
53286;DHT22;39171;45.550;12.074;2023-06-10T16:06:21;24.50;68.10
53286;DHT22;39171;45.550;12.074;2023-06-10T16:12:22;24.50;68.00
53286;DHT22;39171;45.550;12.074;2023-06-10T16:18:26;24.50;68.10
53286;DHT22;39171;45.550;12.074;2023-06-10T16:24:27;24.50;68.00
53286;DHT22;39171;45.550;12.074;2023-06-10T16:30:29;24.50;68.00
53286;DHT22;39171;45.550;12.074;2023-06-10T16:36:30;24.50;68.00
53286;DHT22;39171;45.550;12.074;2023-06-10T16:42:31;24.50;68.00
53286;DHT22;39171;45.550;12.074;2023-06-10T16:48:33;24.50;67.90
53286;DHT22;39171;45.550;12.074;2023-06-10T16:54:35;24.50;68.00
53286;DHT22;39171;45.550;12.074;2023-06-10T17:00:36;24.50;68.00
53286;DHT22;39171;45.550;12.074;2023-06-10T17:06:38;24.50;67.90
53286;DHT22;39171;45.550;12.074;2023-06-10T17:12:42;24.50;67.80
53286;DHT22;39171;45.550;12.074;2023-06-10T17:18:46;24.40;68.10
53286;DHT22;39171;45.550;12.074;2023-06-10T17:24:50;24.30;68.50
53286;DHT22;39171;45.550;12.074;2023-06-10T17:30:52;24.30;68.80
53286;DHT22;39171;45.550;12.074;2023-06-10T17:36:53;24.20;69.10
53286;DHT22;39171;45.550;12.074;2023-06-10T17:42:54;24.20;69.50
53286;DHT22;39171;45.550;12.074;2023-06-10T17:48:56;24.20;70.30
53286;DHT22;39171;45.550;12.074;2023-06-10T17:55:00;24.10;70.50
53286;DHT22;39171;45.550;12.074;2023-06-10T18:01:07;24.10;71.00
53286;DHT22;39171;45.550;12.074;2023-06-10T18:07:08;24.00;71.20
53286;DHT22;39171;45.550;12.074;2023-06-10T18:13:10;24.00;71.60
53286;DHT22;39171;45.550;12.074;2023-06-10T18:19:11;24.00;71.90
53286;DHT22;39171;45.550;12.074;2023-06-10T18:25:14;24.00;72.30
53286;DHT22;39171;45.550;12.074;2023-06-10T18:31:17;24.00;72.40
53286;DHT22;39171;45.550;12.074;2023-06-10T18:37:19;24.00;72.70
53286;DHT22;39171;45.550;12.074;2023-06-10T18:43:23;23.90;73.10
53286;DHT22;39171;45.550;12.074;2023-06-10T18:49:25;23.90;73.60
53286;DHT22;39171;45.550;12.074;2023-06-10T18:55:26;23.90;73.90
53286;DHT22;39171;45.550;12.074;2023-06-10T19:01:28;23.90;74.40
53286;DHT22;39171;45.550;12.074;2023-06-10T19:07:29;23.90;74.70
53286;DHT22;39171;45.550;12.074;2023-06-10T19:13:31;23.90;74.90
53286;DHT22;39171;45.550;12.074;2023-06-10T19:19:37;23.80;75.20
53286;DHT22;39171;45.550;12.074;2023-06-10T19:25:39;23.80;75.40
53286;DHT22;39171;45.550;12.074;2023-06-10T19:31:41;23.80;75.40
53286;DHT22;39171;45.550;12.074;2023-06-10T19:37:42;23.80;75.80
53286;DHT22;39171;45.550;12.074;2023-06-10T19:43:44;23.80;76.00
53286;DHT22;39171;45.550;12.074;2023-06-10T19:49:45;23.80;76.10
53286;DHT22;39171;45.550;12.074;2023-06-10T19:55:47;23.80;76.10
53286;DHT22;39171;45.550;12.074;2023-06-10T20:01:48;23.80;76.30
53286;DHT22;39171;45.550;12.074;2023-06-10T20:07:50;23.80;76.30
53286;DHT22;39171;45.550;12.074;2023-06-10T20:13:51;23.80;76.30
53286;DHT22;39171;45.550;12.074;2023-06-10T20:19:56;23.80;76.40
53286;DHT22;39171;45.550;12.074;2023-06-10T20:25:57;23.80;76.60
53286;DHT22;39171;45.550;12.074;2023-06-10T20:31:59;23.80;76.60
53286;DHT22;39171;45.550;12.074;2023-06-10T20:38:00;23.80;76.70
53286;DHT22;39171;45.550;12.074;2023-06-10T20:44:01;23.80;76.80
53286;DHT22;39171;45.550;12.074;2023-06-10T20:50:03;23.80;76.90
53286;DHT22;39171;45.550;12.074;2023-06-10T20:56:04;23.80;77.20
53286;DHT22;39171;45.550;12.074;2023-06-10T21:02:06;23.80;77.40
53286;DHT22;39171;45.550;12.074;2023-06-10T21:08:08;23.70;77.50
53286;DHT22;39171;45.550;12.074;2023-06-10T21:14:09;23.80;77.50
53286;DHT22;39171;45.550;12.074;2023-06-10T21:20:16;23.70;77.70
53286;DHT22;39171;45.550;12.074;2023-06-10T21:26:18;23.70;78.10
53286;DHT22;39171;45.550;12.074;2023-06-10T21:32:19;23.70;78.10
53286;DHT22;39171;45.550;12.074;2023-06-10T21:38:20;23.70;78.40
53286;DHT22;39171;45.550;12.074;2023-06-10T21:44:25;23.70;78.70
53286;DHT22;39171;45.550;12.074;2023-06-10T21:50:26;23.70;78.70
53286;DHT22;39171;45.550;12.074;2023-06-10T21:56:27;23.70;79.20
53286;DHT22;39171;45.550;12.074;2023-06-10T22:02:32;23.70;79.10
53286;DHT22;39171;45.550;12.074;2023-06-10T22:08:35;23.60;79.30
53286;DHT22;39171;45.550;12.074;2023-06-10T22:14:36;23.60;79.30
53286;DHT22;39171;45.550;12.074;2023-06-10T22:20:38;23.60;79.20
53286;DHT22;39171;45.550;12.074;2023-06-10T22:26:39;23.60;79.20
53286;DHT22;39171;45.550;12.074;2023-06-10T22:32:40;23.60;79.20
53286;DHT22;39171;45.550;12.074;2023-06-10T22:38:42;23.60;79.10
53286;DHT22;39171;45.550;12.074;2023-06-10T22:44:43;23.60;79.20
53286;DHT22;39171;45.550;12.074;2023-06-10T22:50:47;23.60;79.10
53286;DHT22;39171;45.550;12.074;2023-06-10T22:56:48;23.60;79.20
53286;DHT22;39171;45.550;12.074;2023-06-10T23:02:51;23.60;79.20
53286;DHT22;39171;45.550;12.074;2023-06-10T23:08:52;23.60;79.30
53286;DHT22;39171;45.550;12.074;2023-06-10T23:14:54;23.50;79.40
53286;DHT22;39171;45.550;12.074;2023-06-10T23:20:55;23.60;79.60
53286;DHT22;39171;45.550;12.074;2023-06-10T23:27:00;23.60;79.70
53286;DHT22;39171;45.550;12.074;2023-06-10T23:33:02;23.50;79.80
53286;DHT22;39171;45.550;12.074;2023-06-10T23:39:03;23.60;80.00
53286;DHT22;39171;45.550;12.074;2023-06-10T23:45:05;23.50;80.00
53286;DHT22;39171;45.550;12.074;2023-06-10T23:51:06;23.50;80.00
53286;DHT22;39171;45.550;12.074;2023-06-10T23:57:08;23.50;80.00
